Aérodrome :
LOGIN :

S'inscrire | Disclaimer

   EN    FR    IT 

 










Légende :    VFR   VFR Marginal   IFR   IFR Intensif   IFR Très Intensif
Visi : 
Plafond : 
>= 8 km
>= 3000ft
5 à 8 km
1000 à 3000 ft
1500m à 5 km
500 à 1000 ft
800 à 1500m
200 à 500 ft
< 800m
< 200 ft
Symboles :   Orages  Brouillard  Fortes neiges  Fortes précipitations  Vent > 20 kt
SIGMETs :   Divers  Orages  Givrage  Turbulence  Onde Orograph.  Cendres Volcan.







- Altitude de l'aérodrome : 353 ft
- Code IATA : ZAG


LDZA - Zagreb Pleso

DERNIER METAR :
  • 221900Z 22004KT 190V260 9999 OVC045 12/09 Q1024 NOSIG

METARs EXPIRÉS :
  • 221830Z 24004KT 9999 OVC045 11/09 Q1024 NOSIG
  • 221800Z 25006KT 9999 -RA OVC045 12/09 Q1024 BECMG VRB02KT
  • 221730Z 24007KT 9999 OVC047 12/09 Q1024 BECMG VRB02KT
  • 221700Z 25007KT 9999 OVC049 12/09 Q1024 BECMG VRB02KT
  • 221630Z 25006KT 230V290 CAVOK 12/09 Q1024 BECMG VRB02KT

TAF TAF LDZA
Valide du 22 à 18h jusqu'au 23 à 18h UTC


221725Z 2218/2318 VRB02KT 9999 OVC045 TX23/2315Z TN10/2305Z
BECMG 2316/2318 23006KT
ATIS : +385 1 6-259-214
Pas de NOTAMs connus pour ce terrain.



MET'MAP, la Météo Aéronautique d'un coup d'oeil ! - Copyright ORBIFLY Décembre 2007 - Disclaimer

ORBIFLY MET'MAP TEAM :

Programmation & Développement : Alexandra Zaïnal
Conception & Développement : Baudouin d'Aumeries
Co-Programmation & Développement : Marc-Olivier Méhu
Soutien technique & logistique : Manuel Goepfert

Contact : metmap@orbifly.com




SOURCES & CREDITS :

   NOAA